createdAt,value
2023-04-22T00:07:29.856Z,6.03
2023-04-22T00:17:36.159Z,5.85
2023-04-22T00:27:43.314Z,5.71
2023-04-22T00:37:50.324Z,5.56
2023-04-22T00:47:57.926Z,5.41
2023-04-22T00:58:05.741Z,5.38
2023-04-22T01:08:13.638Z,5.68
2023-04-22T01:18:21.615Z,5.78
2023-04-22T01:28:30.105Z,5.75
2023-04-22T01:38:37.495Z,5.68
2023-04-22T01:48:50.523Z,5.49
2023-04-22T01:58:57.897Z,5.39
2023-04-22T02:09:05.118Z,5.39
2023-04-22T02:19:12.118Z,5.45
2023-04-22T02:29:19.373Z,5.44
2023-04-22T02:39:26.612Z,5.22
2023-04-22T02:49:33.698Z,4.78
2023-04-22T02:59:40.935Z,4.63
2023-04-22T03:09:48.671Z,4.76
2023-04-22T03:19:54.971Z,4.77
2023-04-22T03:30:02.294Z,4.74
2023-04-22T03:40:12.508Z,4.71
2023-04-22T03:50:19.740Z,4.67
2023-04-22T04:00:26.916Z,4.71
2023-04-22T04:10:32.825Z,4.85
2023-04-22T04:20:39.006Z,5.15
2023-04-22T04:30:46.058Z,5.75
2023-04-22T04:40:55.041Z,6.51
2023-04-22T04:51:04.462Z,7.04
2023-04-22T05:01:11.557Z,7.79
2023-04-22T05:11:18.843Z,9.36
2023-04-22T05:21:25.675Z,10.99
2023-04-22T05:31:33.066Z,12.26
2023-04-22T05:41:39.387Z,13.26
2023-04-22T05:51:47.898Z,14.36
2023-04-22T06:01:54.990Z,15.30
2023-04-22T06:12:01.928Z,16.40
2023-04-22T06:22:09.063Z,17.38
2023-04-22T06:32:16.530Z,18.27
2023-04-22T06:42:22.806Z,18.98
2023-04-22T06:52:29.819Z,19.41
2023-04-22T07:02:36.884Z,19.54
2023-04-22T07:12:45.586Z,19.93
2023-04-22T07:22:52.232Z,20.15
2023-04-22T07:32:59.527Z,20.33
2023-04-22T07:43:06.126Z,20.66
2023-04-22T07:53:15.898Z,20.62
2023-04-22T08:03:24.356Z,20.42
2023-04-22T08:13:31.667Z,20.50
2023-04-22T08:23:38.797Z,20.38
2023-04-22T08:33:46.035Z,20.04
2023-04-22T08:43:54.161Z,19.54
2023-04-22T08:54:01.122Z,19.10
2023-04-22T09:04:10.836Z,19.17
2023-04-22T09:14:19.067Z,19.14
2023-04-22T09:24:24.645Z,19.19
2023-04-22T09:34:32.165Z,19.31
2023-04-22T09:44:40.132Z,19.39
2023-04-22T09:54:50.709Z,19.54
2023-04-22T10:04:57.292Z,19.79
2023-04-22T10:15:06.678Z,19.63
2023-04-22T10:25:14.269Z,19.73
2023-04-22T10:35:27.466Z,19.38
2023-04-22T10:45:36.876Z,19.24
2023-04-22T10:55:50.287Z,19.46
2023-04-22T11:06:15.466Z,19.48
2023-04-22T11:16:23.249Z,19.77
2023-04-22T11:26:38.800Z,20.17
2023-04-22T11:36:46.472Z,20.26
2023-04-22T11:46:53.561Z,20.25
2023-04-22T11:57:02.403Z,20.19
2023-04-22T12:07:08.497Z,20.08
2023-04-22T12:17:16.614Z,20.36
2023-04-22T12:27:24.172Z,20.50
2023-04-22T12:37:31.342Z,20.24
2023-04-22T12:47:38.427Z,20.10
2023-04-22T12:57:46.094Z,19.98
2023-04-22T13:18:05.169Z,19.80
2023-04-22T13:28:11.816Z,19.94
2023-04-22T13:38:19.690Z,19.98
2023-04-22T13:48:27.708Z,20.02
2023-04-22T13:58:34.910Z,19.96
2023-04-22T14:08:42.561Z,19.90
2023-04-22T14:18:48.937Z,19.85
2023-04-22T14:28:56.224Z,19.82
2023-04-22T14:39:03.561Z,19.78
2023-04-22T14:49:10.795Z,19.82
2023-04-22T14:59:18.020Z,19.89
2023-04-22T15:09:24.744Z,20.01
2023-04-22T15:19:31.654Z,19.93
2023-04-22T15:29:39.217Z,19.87
2023-04-22T15:39:46.110Z,19.71
2023-04-22T15:49:53.887Z,19.56
2023-04-22T16:00:09.979Z,19.43
2023-04-22T16:10:17.895Z,19.28
2023-04-22T16:20:23.938Z,19.14
2023-04-22T16:30:31.396Z,18.99
2023-04-22T16:40:40.523Z,18.78
2023-04-22T16:50:47.692Z,18.54
2023-04-22T17:00:55.272Z,18.27
2023-04-22T17:11:02.507Z,18.02
2023-04-22T17:21:06.517Z,17.77
2023-04-22T17:31:14.163Z,17.52
2023-04-22T17:41:21.552Z,17.18
2023-04-22T17:51:29.356Z,16.84
2023-04-22T18:01:36.626Z,16.49
2023-04-22T18:11:41.928Z,16.17
2023-04-22T18:21:59.576Z,15.90
2023-04-22T18:32:08.254Z,15.64
2023-04-22T18:42:16.150Z,15.38
2023-04-22T18:52:22.387Z,15.21
2023-04-22T19:02:29.728Z,15.07
2023-04-22T19:12:37.294Z,14.98
2023-04-22T19:22:44.923Z,14.78
2023-04-22T19:32:52.140Z,14.49
2023-04-22T19:42:59.094Z,14.10
2023-04-22T19:53:07.842Z,13.76
2023-04-22T20:03:16.338Z,13.51
2023-04-22T20:13:22.716Z,13.21
2023-04-22T20:23:32.539Z,13.02
2023-04-22T20:33:39.949Z,12.85
2023-04-22T20:43:47.323Z,12.64
2023-04-22T20:53:55.163Z,12.43
2023-04-22T21:04:03.820Z,12.20
2023-04-22T21:14:10.397Z,12.02
2023-04-22T21:24:18.551Z,11.86
2023-04-22T21:44:31.060Z,11.38
2023-04-22T21:54:38.278Z,11.13
2023-04-22T22:04:46.135Z,10.93
2023-04-22T22:14:53.488Z,10.84
2023-04-22T22:25:00.547Z,10.79
2023-04-22T22:45:12.948Z,10.74
2023-04-22T22:55:20.292Z,10.70
2023-04-22T23:05:26.297Z,10.51
2023-04-22T23:15:33.648Z,10.30
2023-04-22T23:25:41.519Z,10.08
2023-04-22T23:35:49.821Z,9.89
2023-04-22T23:45:56.874Z,9.62
2023-04-22T23:56:04.955Z,9.41
